Time;durP1;ratioP1;P1;durP2;ratioP2;P2;SDS_P1;SDS_P2;PMS_P1;PMS_P2;Temp;Humidity;BMP_temperature;BMP_pressure;BME280_temperature;BME280_humidity;BME280_pressure;Samples;Min_cycle;Max_cycle;Signal;HPM_P1;HPM_P2
2021/08/08 00:01:35;;;;;;;18.00;14.80;;;;;;;;;;5095209;28;20020;-62
2021/08/08 00:04:01;;;;;;;16.60;14.43;;;;;;;;;;5095197;28;20020;-63
2021/08/08 00:06:27;;;;;;;17.05;14.52;;;;;;;;;;5094469;28;20024;-63
2021/08/08 00:08:53;;;;;;;17.27;14.90;;;;;;;;;;5093262;28;20024;-62
2021/08/08 00:11:19;;;;;;;16.88;14.52;;;;;;;;;;5076821;28;20040;-62
2021/08/08 00:13:45;;;;;;;16.80;14.50;;;;;;;;;;5093354;28;20046;-63
2021/08/08 00:16:11;;;;;;;17.27;14.77;;;;;;;;;;5076157;28;20033;-64
2021/08/08 00:18:37;;;;;;;16.65;14.85;;;;;;;;;;5094905;28;20031;-61
2021/08/08 00:21:03;;;;;;;17.15;14.60;;;;;;;;;;5094717;28;20012;-63
2021/08/08 00:23:29;;;;;;;18.73;15.43;;;;;;;;;;5076567;28;20476;-63
2021/08/08 00:25:55;;;;;;;17.70;14.77;;;;;;;;;;5094183;28;20032;-63
2021/08/08 00:28:21;;;;;;;17.33;14.15;;;;;;;;;;5076647;28;20089;-62
2021/08/08 00:30:47;;;;;;;19.75;15.02;;;;;;;;;;5094719;28;20024;-62
2021/08/08 00:33:13;;;;;;;17.80;14.80;;;;;;;;;;5094679;28;20056;-62
2021/08/08 00:35:42;;;;;;;17.58;14.43;;;;;;;;;;5075759;28;20130;-62
2021/08/08 00:38:08;;;;;;;17.67;15.05;;;;;;;;;;5094605;28;20024;-63
2021/08/08 00:40:34;;;;;;;16.45;14.20;;;;;;;;;;5076513;28;20035;-63
2021/08/08 00:43:00;;;;;;;16.42;13.82;;;;;;;;;;5094577;28;20026;-64
2021/08/08 00:45:26;;;;;;;17.08;13.98;;;;;;;;;;5075581;28;20019;-62
2021/08/08 00:47:52;;;;;;;17.35;14.40;;;;;;;;;;5076184;28;20028;-62
2021/08/08 00:50:18;;;;;;;17.75;14.02;;;;;;;;;;5076245;28;20396;-63
2021/08/08 00:52:45;;;;;;;16.55;14.25;;;;;;;;;;5076047;28;20070;-63
2021/08/08 00:55:11;;;;;;;16.13;13.90;;;;;;;;;;5075658;28;20461;-63
2021/08/08 00:57:37;;;;;;;17.10;14.18;;;;;;;;;;5075903;28;20032;-64
2021/08/08 01:00:05;;;;;;;19.02;14.15;;;;;;;;;;5075959;28;20115;-62
2021/08/08 01:02:32;;;;;;;17.42;14.32;;;;;;;;;;5076172;28;20387;-62
2021/08/08 01:05:21;;;;;;;17.55;14.43;;;;;;;;;;5094059;28;20031;-62
2021/08/08 01:07:47;;;;;;;;;;;;;;;;;;5094508;28;20540;-62
2021/08/08 01:10:13;;;;;;;17.33;14.13;;;;;;;;;;5093955;28;19915;-62
2021/08/08 01:12:39;;;;;;;19.20;14.05;;;;;;;;;;5093891;28;20035;-62
2021/08/08 01:15:06;;;;;;;19.58;14.55;;;;;;;;;;5093763;28;20020;-63
2021/08/08 01:17:32;;;;;;;19.75;14.48;;;;;;;;;;5075466;28;20102;-63
2021/08/08 01:19:58;;;;;;;16.40;13.95;;;;;;;;;;5075560;28;20107;-62
2021/08/08 01:22:27;;;;;;;17.58;13.80;;;;;;;;;;5075944;28;20098;-63
2021/08/08 01:24:53;;;;;;;16.90;14.20;;;;;;;;;;5093612;28;20031;-63
2021/08/08 01:27:20;;;;;;;17.85;14.05;;;;;;;;;;5092706;28;20036;-62
2021/08/08 01:29:46;;;;;;;17.48;13.95;;;;;;;;;;5075565;28;20047;-62
2021/08/08 01:32:12;;;;;;;16.92;13.70;;;;;;;;;;5093550;28;20481;-62
2021/08/08 01:34:38;;;;;;;17.00;13.82;;;;;;;;;;5093560;28;20416;-62
2021/08/08 01:37:04;;;;;;;19.52;14.40;;;;;;;;;;5092811;28;20030;-63
2021/08/08 01:39:31;;;;;;;17.35;13.75;;;;;;;;;;5073846;28;20063;-63
2021/08/08 01:41:58;;;;;;;18.77;14.35;;;;;;;;;;5075446;28;20460;-63
2021/08/08 01:44:25;;;;;;;17.30;14.35;;;;;;;;;;5093373;28;20027;-62
2021/08/08 01:46:55;;;;;;;17.00;14.10;;;;;;;;;;5092667;28;20495;-63
2021/08/08 01:49:23;;;;;;;16.95;14.00;;;;;;;;;;5093227;28;20435;-63
2021/08/08 01:51:50;;;;;;;16.42;13.90;;;;;;;;;;5093321;28;20392;-63
2021/08/08 01:54:17;;;;;;;18.85;14.15;;;;;;;;;;5092901;28;20036;-63
2021/08/08 01:56:44;;;;;;;19.25;14.57;;;;;;;;;;5092555;28;20027;-63
2021/08/08 01:59:10;;;;;;;17.90;14.30;;;;;;;;;;5075139;28;20024;-63
2021/08/08 02:01:36;;;;;;;18.88;14.18;;;;;;;;;;5093068;28;20022;-62
2021/08/08 02:04:01;;;;;;;16.90;13.75;;;;;;;;;;5092779;28;20020;-62
2021/08/08 02:06:28;;;;;;;19.67;14.05;;;;;;;;;;5091689;28;20023;-62
2021/08/08 02:08:53;;;;;;;17.40;14.20;;;;;;;;;;5092925;28;20035;-63
2021/08/08 02:11:19;;;;;;;17.15;14.38;;;;;;;;;;5092858;28;20396;-63
2021/08/08 02:13:45;;;;;;;17.80;14.15;;;;;;;;;;5093062;28;20024;-62
2021/08/08 02:16:11;;;;;;;17.92;13.95;;;;;;;;;;5073144;28;20076;-62
2021/08/08 02:18:37;;;;;;;16.60;13.85;;;;;;;;;;5091714;28;20478;-62
2021/08/08 02:21:03;;;;;;;17.95;14.00;;;;;;;;;;5091997;28;20107;-62
2021/08/08 02:23:29;;;;;;;18.48;14.15;;;;;;;;;;5073765;28;20020;-62
2021/08/08 02:25:55;;;;;;;16.92;14.15;;;;;;;;;;5091814;28;20020;-62
2021/08/08 02:28:21;;;;;;;17.27;14.82;;;;;;;;;;5074386;28;20035;-62
2021/08/08 02:30:47;;;;;;;17.63;14.68;;;;;;;;;;5074585;28;20059;-62
2021/08/08 02:33:13;;;;;;;18.45;14.00;;;;;;;;;;5092203;28;20076;-62
2021/08/08 02:35:39;;;;;;;22.08;14.95;;;;;;;;;;5091868;28;20076;-62
2021/08/08 02:38:05;;;;;;;17.48;14.57;;;;;;;;;;5092291;28;20024;-62
2021/08/08 02:40:31;;;;;;;17.70;14.27;;;;;;;;;;5074116;28;20020;-62
2021/08/08 02:42:57;;;;;;;21.00;15.30;;;;;;;;;;5092180;28;20020;-62
2021/08/08 02:45:23;;;;;;;19.27;14.50;;;;;;;;;;5072647;28;20020;-61
2021/08/08 02:47:49;;;;;;;17.60;14.70;;;;;;;;;;5091551;28;20043;-63
2021/08/08 02:50:15;;;;;;;19.02;14.65;;;;;;;;;;5092088;28;20031;-62
2021/08/08 02:52:42;;;;;;;19.02;14.90;;;;;;;;;;5091754;28;20032;-62
2021/08/08 02:55:09;;;;;;;19.63;15.20;;;;;;;;;;5091474;28;20026;-62
2021/08/08 02:57:35;;;;;;;19.08;14.70;;;;;;;;;;5091831;28;20027;-63
2021/08/08 03:00:01;;;;;;;20.73;15.32;;;;;;;;;;5073900;28;20020;-63
2021/08/08 03:02:27;;;;;;;19.75;15.52;;;;;;;;;;5073735;28;20028;-63
2021/08/08 03:04:53;;;;;;;21.88;16.27;;;;;;;;;;5091951;28;20222;-63
2021/08/08 03:07:19;;;;;;;20.48;15.95;;;;;;;;;;5091358;28;20036;-63
2021/08/08 03:09:45;;;;;;;19.92;15.35;;;;;;;;;;5073757;28;20028;-63
2021/08/08 03:12:11;;;;;;;23.58;16.33;;;;;;;;;;5091894;28;20024;-63
2021/08/08 03:14:37;;;;;;;21.90;15.63;;;;;;;;;;5091747;28;20515;-63
2021/08/08 03:17:03;;;;;;;22.55;15.85;;;;;;;;;;5090182;28;20024;-63
2021/08/08 03:19:29;;;;;;;21.27;16.23;;;;;;;;;;5091297;28;20028;-63
2021/08/08 03:21:55;;;;;;;30.38;17.33;;;;;;;;;;5073512;28;20503;-62
2021/08/08 03:24:21;;;;;;;23.33;16.65;;;;;;;;;;5091791;28;20052;-62
2021/08/08 03:26:47;;;;;;;21.30;15.63;;;;;;;;;;5091063;28;20099;-62
2021/08/08 03:29:13;;;;;;;21.77;16.67;;;;;;;;;;5091611;28;20028;-63
2021/08/08 03:31:41;;;;;;;22.27;15.82;;;;;;;;;;5091710;28;20032;-63
2021/08/08 03:34:07;;;;;;;21.35;15.55;;;;;;;;;;5091704;28;20483;-64
2021/08/08 03:36:33;;;;;;;23.02;15.98;;;;;;;;;;5091133;28;20103;-62
2021/08/08 03:39:01;;;;;;;22.00;16.92;;;;;;;;;;5091449;28;20089;-63
2021/08/08 03:41:27;;;;;;;22.38;15.27;;;;;;;;;;5091482;28;20016;-61
2021/08/08 03:43:53;;;;;;;22.42;15.65;;;;;;;;;;5091509;28;20028;-62
2021/08/08 03:46:19;;;;;;;23.52;16.05;;;;;;;;;;5072761;28;20411;-62
2021/08/08 03:48:45;;;;;;;24.02;15.50;;;;;;;;;;5091567;28;20381;-64
2021/08/08 03:51:11;;;;;;;20.17;14.40;;;;;;;;;;5073608;28;20028;-63
2021/08/08 03:53:37;;;;;;;20.15;13.90;;;;;;;;;;5073395;28;20032;-63
2021/08/08 03:56:03;;;;;;;21.48;13.82;;;;;;;;;;5072801;28;20080;-63
2021/08/08 03:58:32;;;;;;;22.60;14.05;;;;;;;;;;5091342;28;20028;-64
2021/08/08 04:00:59;;;;;;;19.92;13.43;;;;;;;;;;5091542;28;20021;-63
2021/08/08 04:03:25;;;;;;;18.33;13.13;;;;;;;;;;5091439;28;20028;-63
2021/08/08 04:05:52;;;;;;;18.98;12.80;;;;;;;;;;5090860;28;20361;-63
2021/08/08 04:08:18;;;;;;;21.20;13.85;;;;;;;;;;5091563;28;20028;-63
2021/08/08 04:10:43;;;;;;;19.48;13.10;;;;;;;;;;5073388;28;20108;-62
2021/08/08 04:13:09;;;;;;;19.35;13.10;;;;;;;;;;5091188;28;20110;-63
2021/08/08 04:15:35;;;;;;;22.60;14.10;;;;;;;;;;5090637;28;20024;-63
2021/08/08 04:18:01;;;;;;;21.33;13.48;;;;;;;;;;5091462;28;20032;-63
2021/08/08 04:20:27;;;;;;;19.95;13.38;;;;;;;;;;5073341;28;20111;-64
2021/08/08 04:22:53;;;;;;;19.38;13.00;;;;;;;;;;5091099;28;20469;-63
2021/08/08 04:25:19;;;;;;;18.52;12.48;;;;;;;;;;5072403;28;20025;-62
2021/08/08 04:27:45;;;;;;;19.08;12.50;;;;;;;;;;5072998;28;20020;-63
2021/08/08 04:30:12;;;;;;;22.30;13.32;;;;;;;;;;5093987;28;20147;-63
2021/08/08 04:32:37;;;;;;;19.40;13.45;;;;;;;;;;5076656;28;20032;-63
2021/08/08 04:35:04;;;;;;;21.58;12.40;;;;;;;;;;5076920;28;20483;-63
2021/08/08 04:37:31;;;;;;;21.60;13.82;;;;;;;;;;5076479;28;20024;-63
2021/08/08 04:39:57;;;;;;;20.80;13.13;;;;;;;;;;5095372;28;20053;-62
2021/08/08 04:42:23;;;;;;;19.05;13.02;;;;;;;;;;5076954;28;20090;-62
2021/08/08 04:44:49;;;;;;;24.67;14.05;;;;;;;;;;5073751;28;20016;-62
2021/08/08 04:47:15;;;;;;;24.52;13.13;;;;;;;;;;5067166;28;20526;-62
2021/08/08 04:49:41;;;;;;;19.02;13.75;;;;;;;;;;5065236;28;20052;-62
2021/08/08 04:52:07;;;;;;;24.92;13.30;;;;;;;;;;5074303;28;20496;-63
2021/08/08 04:54:33;;;;;;;22.35;13.48;;;;;;;;;;5072542;28;20500;-63
2021/08/08 04:56:59;;;;;;;21.02;12.50;;;;;;;;;;5093607;28;20087;-63
2021/08/08 04:59:25;;;;;;;17.08;12.30;;;;;;;;;;5094130;28;20095;-62
2021/08/08 05:01:51;;;;;;;19.23;13.35;;;;;;;;;;5075995;28;20078;-62
2021/08/08 05:04:17;;;;;;;24.23;14.27;;;;;;;;;;5094128;28;20020;-63
2021/08/08 05:06:43;;;;;;;23.30;12.85;;;;;;;;;;5075564;28;20376;-63
2021/08/08 05:09:09;;;;;;;19.08;12.70;;;;;;;;;;5076118;28;20028;-64
2021/08/08 05:11:35;;;;;;;24.40;13.63;;;;;;;;;;5093809;28;20020;-63
2021/08/08 05:14:01;;;;;;;19.48;12.23;;;;;;;;;;5093798;28;20043;-63
2021/08/08 05:16:27;;;;;;;24.02;13.20;;;;;;;;;;5075092;28;20485;-64
2021/08/08 05:18:53;;;;;;;19.73;12.50;;;;;;;;;;5087975;28;20032;-62
2021/08/08 05:21:19;;;;;;;24.58;13.77;;;;;;;;;;5055889;28;20091;-63
2021/08/08 05:23:45;;;;;;;20.55;12.50;;;;;;;;;;5073529;28;20104;-63
2021/08/08 05:26:11;;;;;;;18.30;12.45;;;;;;;;;;5072791;28;20177;-63
2021/08/08 05:28:41;;;;;;;20.70;13.07;;;;;;;;;;5073448;28;20078;-62
2021/08/08 05:31:07;;;;;;;17.67;12.38;;;;;;;;;;5055303;28;20115;-62
2021/08/08 05:33:33;;;;;;;21.38;12.50;;;;;;;;;;5073507;28;20027;-64
2021/08/08 05:35:59;;;;;;;23.95;13.27;;;;;;;;;;5054858;28;20028;-63
2021/08/08 05:38:25;;;;;;;21.33;12.40;;;;;;;;;;5075835;28;20077;-63
2021/08/08 05:40:51;;;;;;;19.92;12.18;;;;;;;;;;5091543;28;20387;-63
2021/08/08 05:43:18;;;;;;;21.38;12.43;;;;;;;;;;5075496;28;20031;-63
2021/08/08 05:45:48;;;;;;;21.23;13.57;;;;;;;;;;5092593;28;20074;-63
2021/08/08 05:48:14;;;;;;;19.80;12.80;;;;;;;;;;5093514;28;20361;-63
2021/08/08 05:50:40;;;;;;;20.25;12.73;;;;;;;;;;5093280;28;20024;-62
2021/08/08 05:53:06;;;;;;;19.92;12.23;;;;;;;;;;5095785;22;20389;-63
2021/08/08 05:55:34;;;;;;;20.25;12.50;;;;;;;;;;5092117;28;20028;-62
2021/08/08 05:58:00;;;;;;;21.45;12.60;;;;;;;;;;5074470;28;20042;-64
2021/08/08 06:00:26;;;;;;;19.30;11.93;;;;;;;;;;5093131;28;20418;-62
2021/08/08 06:02:52;;;;;;;19.77;13.02;;;;;;;;;;5093098;28;20030;-63
2021/08/08 06:05:18;;;;;;;18.55;12.63;;;;;;;;;;5092836;28;20024;-63
2021/08/08 06:07:44;;;;;;;18.75;12.52;;;;;;;;;;5073064;28;20024;-62
2021/08/08 06:10:10;;;;;;;19.02;13.65;;;;;;;;;;5092926;28;20451;-62
2021/08/08 06:12:36;;;;;;;22.02;13.07;;;;;;;;;;5092764;28;20032;-63
2021/08/08 06:15:02;;;;;;;19.23;13.63;;;;;;;;;;5074500;28;20396;-63
2021/08/08 06:17:31;;;;;;;20.48;13.57;;;;;;;;;;5073902;28;20028;-62
2021/08/08 06:19:57;;;;;;;20.92;13.77;;;;;;;;;;5082499;28;20117;-60
2021/08/08 06:22:23;;;;;;;27.83;15.00;;;;;;;;;;5054190;28;20021;-65
2021/08/08 06:24:49;;;;;;;21.95;14.88;;;;;;;;;;5054419;28;20031;-66
2021/08/08 06:27:15;;;;;;;18.77;14.65;;;;;;;;;;5071320;28;20028;-65
2021/08/08 06:29:41;;;;;;;21.27;14.63;;;;;;;;;;5054550;28;20530;-64
2021/08/08 06:32:07;;;;;;;19.20;13.95;;;;;;;;;;5072319;28;20104;-64
2021/08/08 06:34:33;;;;;;;21.05;13.75;;;;;;;;;;5054321;28;20025;-66
2021/08/08 06:36:59;;;;;;;23.23;14.60;;;;;;;;;;5071742;28;20023;-64
2021/08/08 06:39:25;;;;;;;20.90;14.27;;;;;;;;;;5054663;28;20056;-65
2021/08/08 06:41:51;;;;;;;22.00;15.48;;;;;;;;;;5054488;28;20546;-63
2021/08/08 06:44:17;;;;;;;22.20;14.48;;;;;;;;;;5072249;28;20024;-65
2021/08/08 06:46:43;;;;;;;20.17;14.95;;;;;;;;;;5053633;28;20081;-65
2021/08/08 06:49:09;;;;;;;23.45;15.32;;;;;;;;;;5054135;28;20469;-63
2021/08/08 06:51:35;;;;;;;23.27;15.65;;;;;;;;;;5053920;28;20032;-67
2021/08/08 06:54:01;;;;;;;26.27;15.25;;;;;;;;;;5054001;28;20171;-63
2021/08/08 06:56:29;;;;;;;19.30;14.10;;;;;;;;;;5053368;28;20043;-61
2021/08/08 06:58:55;;;;;;;22.08;15.27;;;;;;;;;;5071942;28;20073;-61
2021/08/08 07:01:21;;;;;;;25.80;15.20;;;;;;;;;;5071909;28;20020;-64
2021/08/08 07:03:47;;;;;;;20.90;13.65;;;;;;;;;;5053909;28;20537;-64
2021/08/08 07:06:13;;;;;;;22.58;14.35;;;;;;;;;;5071060;28;20025;-67
2021/08/08 07:08:39;;;;;;;22.20;15.40;;;;;;;;;;5053564;28;20078;-65
2021/08/08 07:11:05;;;;;;;20.20;15.15;;;;;;;;;;5071616;28;20025;-65
2021/08/08 07:13:31;;;;;;;19.88;14.25;;;;;;;;;;5053880;28;20647;-65
2021/08/08 07:15:57;;;;;;;26.52;16.50;;;;;;;;;;5070991;28;20028;-66
2021/08/08 07:18:23;;;;;;;22.48;14.50;;;;;;;;;;5053307;28;20040;-67
2021/08/08 07:20:49;;;;;;;19.90;14.35;;;;;;;;;;5053311;28;20025;-66
2021/08/08 07:23:15;;;;;;;22.50;15.00;;;;;;;;;;5071227;28;20059;-66
2021/08/08 07:25:41;;;;;;;22.98;14.65;;;;;;;;;;5052831;28;20024;-64
2021/08/08 07:28:07;;;;;;;23.40;16.10;;;;;;;;;;5071283;28;20025;-67
2021/08/08 07:30:33;;;;;;;22.92;15.00;;;;;;;;;;5071128;28;20553;-68
2021/08/08 07:32:59;;;;;;;22.77;15.00;;;;;;;;;;5053149;28;20024;-64
2021/08/08 07:35:26;;;;;;;23.48;14.70;;;;;;;;;;5052666;28;20353;-64
2021/08/08 07:37:52;;;;;;;23.23;15.88;;;;;;;;;;5070955;28;20025;-66
2021/08/08 07:40:18;;;;;;;20.08;15.48;;;;;;;;;;5053169;28;20028;-65
2021/08/08 07:42:51;;;;;;;21.30;15.02;;;;;;;;;;5053417;28;20036;-66
2021/08/08 07:45:17;;;;;;;21.63;15.43;;;;;;;;;;5070702;28;20108;-66
2021/08/08 07:47:43;;;;;;;23.75;15.57;;;;;;;;;;5053915;28;20074;-65
2021/08/08 07:50:10;;;;;;;25.08;14.90;;;;;;;;;;5071573;28;20024;-66
2021/08/08 07:52:36;;;;;;;23.45;14.98;;;;;;;;;;5070910;28;20052;-65
2021/08/08 07:55:04;;;;;;;25.20;15.07;;;;;;;;;;5071418;28;20075;-64
2021/08/08 07:57:30;;;;;;;23.03;15.07;;;;;;;;;;5052787;28;20021;-65
2021/08/08 07:59:56;;;;;;;24.30;15.27;;;;;;;;;;5053513;28;20135;-64
2021/08/08 08:02:22;;;;;;;23.67;14.98;;;;;;;;;;5071148;28;20024;-64
2021/08/08 08:04:48;;;;;;;21.45;14.50;;;;;;;;;;5055100;28;20067;-65
2021/08/08 08:07:14;;;;;;;23.98;14.82;;;;;;;;;;5073781;28;20028;-64
2021/08/08 08:09:40;;;;;;;21.75;15.07;;;;;;;;;;5056715;28;20052;-63
2021/08/08 08:12:06;;;;;;;22.77;15.40;;;;;;;;;;5056881;28;20024;-66
2021/08/08 08:14:32;;;;;;;26.25;15.30;;;;;;;;;;5074598;28;20024;-65
2021/08/08 08:16:58;;;;;;;24.23;15.35;;;;;;;;;;5074048;28;20021;-66
2021/08/08 08:19:24;;;;;;;20.55;14.98;;;;;;;;;;5074567;28;20039;-66
2021/08/08 08:21:50;;;;;;;22.05;15.05;;;;;;;;;;5074702;28;20384;-66
2021/08/08 08:24:16;;;;;;;22.42;16.17;;;;;;;;;;5056326;28;20032;-66
2021/08/08 08:26:42;;;;;;;22.25;15.48;;;;;;;;;;5073966;28;20384;-66
2021/08/08 08:29:08;;;;;;;23.15;15.73;;;;;;;;;;5074552;28;20052;-65
2021/08/08 08:31:35;;;;;;;22.38;15.98;;;;;;;;;;5074506;28;20117;-66
2021/08/08 08:34:01;;;;;;;20.27;14.93;;;;;;;;;;5074451;28;20052;-66
2021/08/08 08:36:27;;;;;;;22.13;14.38;;;;;;;;;;5055750;28;20102;-64
2021/08/08 08:38:53;;;;;;;23.92;15.73;;;;;;;;;;5056621;28;20068;-66
2021/08/08 08:41:23;;;;;;;22.55;15.30;;;;;;;;;;5056312;28;20025;-66
2021/08/08 08:43:49;;;;;;;18.50;14.93;;;;;;;;;;5074266;28;20472;-66
2021/08/08 08:46:15;;;;;;;23.63;15.77;;;;;;;;;;5063830;28;20484;-64
2021/08/08 08:48:43;;;;;;;25.63;15.50;;;;;;;;;;5094366;28;20024;-65
2021/08/08 08:51:10;;;;;;;22.65;16.65;;;;;;;;;;5094372;28;20109;-66
2021/08/08 08:53:36;;;;;;;23.35;15.25;;;;;;;;;;5094279;28;20031;-65
2021/08/08 08:56:03;;;;;;;21.42;15.73;;;;;;;;;;5093632;28;20028;-66
2021/08/08 08:58:30;;;;;;;22.60;15.73;;;;;;;;;;5094126;28;20036;-66
2021/08/08 09:00:56;;;;;;;21.73;15.45;;;;;;;;;;5094397;28;20024;-67
2021/08/08 09:03:22;;;;;;;22.23;16.00;;;;;;;;;;5075387;28;20024;-64
2021/08/08 09:05:48;;;;;;;21.10;15.20;;;;;;;;;;5093505;28;20174;-66
2021/08/08 09:08:14;;;;;;;21.75;16.38;;;;;;;;;;5075830;28;20115;-65
2021/08/08 09:10:41;;;;;;;22.02;15.75;;;;;;;;;;5068687;28;20036;-67
2021/08/08 09:13:07;;;;;;;21.88;15.68;;;;;;;;;;5088673;28;20242;-65
2021/08/08 09:15:38;;;;;;;24.55;15.98;;;;;;;;;;5073770;28;20032;-63
2021/08/08 09:18:10;;;;;;;33.15;16.45;;;;;;;;;;5075665;28;20028;-68
2021/08/08 09:20:37;;;;;;;20.58;14.95;;;;;;;;;;5094079;28;20016;-67
2021/08/08 09:23:03;;;;;;;24.02;16.17;;;;;;;;;;5093878;28;20020;-65
2021/08/08 09:25:29;;;;;;;26.08;16.48;;;;;;;;;;5075014;28;20153;-67
2021/08/08 09:28:05;;;;;;;22.77;15.40;;;;;;;;;;5075734;28;20073;-67
2021/08/08 09:30:35;;;;;;;22.52;15.82;;;;;;;;;;5093682;28;20035;-67
2021/08/08 09:33:05;;;;;;;20.38;15.68;;;;;;;;;;5075424;28;20391;-67
2021/08/08 09:35:32;;;;;;;20.65;14.88;;;;;;;;;;5093084;28;20031;-66
2021/08/08 09:38:01;;;;;;;24.20;15.07;;;;;;;;;;5093649;28;20028;-66
2021/08/08 09:40:27;;;;;;;21.42;15.77;;;;;;;;;;5075209;28;20108;-66
2021/08/08 09:42:54;;;;;;;19.48;15.52;;;;;;;;;;5075181;28;20020;-65
2021/08/08 09:45:20;;;;;;;20.70;15.38;;;;;;;;;;5074441;28;20500;-66
2021/08/08 09:47:50;;;;;;;20.17;15.70;;;;;;;;;;5093029;28;20487;-64
2021/08/08 09:50:20;;;;;;;19.75;16.23;;;;;;;;;;5075106;28;20111;-64
2021/08/08 09:52:52;;;;;;;24.73;16.20;;;;;;;;;;5074561;28;20392;-65
2021/08/08 09:55:23;;;;;;;21.77;15.77;;;;;;;;;;5092544;28;20032;-65
2021/08/08 09:57:49;;;;;;;20.63;15.95;;;;;;;;;;5092882;28;20032;-64
2021/08/08 10:00:23;;;;;;;21.83;15.18;;;;;;;;;;5092968;28;20142;-65
2021/08/08 10:02:49;;;;;;;20.67;15.30;;;;;;;;;;5092729;28;20051;-62
2021/08/08 10:05:15;;;;;;;21.15;15.25;;;;;;;;;;5073740;28;20020;-64
2021/08/08 10:07:41;;;;;;;21.85;16.33;;;;;;;;;;5092557;28;20025;-65
2021/08/08 10:10:07;;;;;;;22.40;16.40;;;;;;;;;;5074420;28;20035;-63
2021/08/08 10:12:40;;;;;;;21.88;16.08;;;;;;;;;;5074454;28;20067;-63
2021/08/08 10:15:06;;;;;;;19.77;15.68;;;;;;;;;;5092072;28;20032;-59
2021/08/08 10:17:34;;;;;;;20.00;15.70;;;;;;;;;;5092505;28;20024;-65
2021/08/08 10:20:01;;;;;;;18.88;14.75;;;;;;;;;;5092405;28;20446;-65
2021/08/08 10:22:28;;;;;;;19.13;15.88;;;;;;;;;;5074098;28;20036;-64
2021/08/08 10:24:58;;;;;;;22.10;15.65;;;;;;;;;;5092452;28;20450;-66
2021/08/08 10:27:24;;;;;;;22.63;16.05;;;;;;;;;;5091534;28;20024;-65
2021/08/08 10:29:51;;;;;;;21.88;15.88;;;;;;;;;;5092439;28;20150;-65
2021/08/08 10:32:17;;;;;;;21.77;15.20;;;;;;;;;;5073951;28;20024;-64
2021/08/08 10:34:44;;;;;;;26.98;16.13;;;;;;;;;;5092138;28;20396;-63
2021/08/08 10:37:10;;;;;;;20.20;15.90;;;;;;;;;;5073238;28;20471;-63
2021/08/08 10:39:45;;;;;;;24.13;16.00;;;;;;;;;;5074074;28;20250;-64
2021/08/08 10:42:11;;;;;;;19.88;15.88;;;;;;;;;;5092130;28;20040;-64
2021/08/08 10:44:47;;;;;;;22.60;15.50;;;;;;;;;;5091941;28;20361;-67
2021/08/08 10:47:23;;;;;;;19.40;15.35;;;;;;;;;;5057414;28;20025;-65
2021/08/08 10:49:49;;;;;;;21.42;15.52;;;;;;;;;;5053634;28;20056;-65
2021/08/08 10:52:15;;;;;;;22.02;16.08;;;;;;;;;;5071494;28;20497;-66
2021/08/08 10:54:48;;;;;;;24.48;15.80;;;;;;;;;;5053864;28;20090;-66
2021/08/08 10:57:15;;;;;;;22.08;16.30;;;;;;;;;;5071126;28;20027;-66
2021/08/08 10:59:45;;;;;;;23.63;16.40;;;;;;;;;;5071719;28;20016;-69
2021/08/08 11:02:14;;;;;;;21.08;15.93;;;;;;;;;;5053518;28;20131;-67
2021/08/08 11:04:40;;;;;;;22.35;16.00;;;;;;;;;;5071807;28;20396;-66
2021/08/08 11:07:07;;;;;;;20.88;16.52;;;;;;;;;;5070879;28;20048;-66
2021/08/08 11:09:37;;;;;;;21.50;15.65;;;;;;;;;;5053888;28;20020;-65
2021/08/08 11:12:03;;;;;;;21.60;15.82;;;;;;;;;;5054488;28;20024;-63
2021/08/08 11:14:30;;;;;;;20.75;16.17;;;;;;;;;;5071985;28;20093;-66
2021/08/08 11:16:58;;;;;;;23.98;16.10;;;;;;;;;;5071024;28;20033;-65
2021/08/08 11:19:35;;;;;;;19.38;16.00;;;;;;;;;;5071167;28;20091;-65
2021/08/08 11:22:07;;;;;;;19.33;15.30;;;;;;;;;;5071220;28;20020;-68
2021/08/08 11:24:33;;;;;;;21.42;16.58;;;;;;;;;;5071476;28;20337;-66
2021/08/08 11:26:59;;;;;;;19.35;16.17;;;;;;;;;;5052613;28;20028;-68
2021/08/08 11:29:25;;;;;;;19.73;15.23;;;;;;;;;;5053971;28;20120;-67
2021/08/08 11:31:53;;;;;;;25.25;15.50;;;;;;;;;;5053780;28;20171;-61
2021/08/08 11:34:23;;;;;;;18.85;15.18;;;;;;;;;;5071667;28;20028;-66
2021/08/08 11:36:49;;;;;;;22.25;16.05;;;;;;;;;;5052862;28;20075;-66
2021/08/08 11:39:15;;;;;;;23.55;16.00;;;;;;;;;;5055317;28;20083;-65
2021/08/08 11:41:42;;;;;;;22.85;16.75;;;;;;;;;;5056978;28;20505;-64
2021/08/08 11:44:08;;;;;;;22.27;17.17;;;;;;;;;;5074970;28;20594;-64
2021/08/08 11:46:35;;;;;;;23.30;15.90;;;;;;;;;;5056375;28;20032;-67
2021/08/08 11:49:12;;;;;;;22.20;16.33;;;;;;;;;;5075209;28;20099;-65
2021/08/08 11:51:40;;;;;;;20.00;16.13;;;;;;;;;;5056474;28;20132;-67
2021/08/08 11:54:07;;;;;;;23.45;15.80;;;;;;;;;;5071850;22;20120;-65
2021/08/08 11:56:33;;;;;;;23.35;16.77;;;;;;;;;;5056154;28;20056;-66
2021/08/08 11:58:59;;;;;;;20.30;16.05;;;;;;;;;;5074842;28;20068;-66
2021/08/08 12:01:26;;;;;;;22.63;16.02;;;;;;;;;;5056087;28;20021;-66
2021/08/08 12:03:53;;;;;;;33.78;27.38;;;;;;;;;;5082603;28;20418;-66
2021/08/08 12:06:23;;;;;;;27.38;20.48;;;;;;;;;;5076584;28;20031;-66
2021/08/08 12:08:50;;;;;;;20.50;16.10;;;;;;;;;;5076941;28;20408;-66
2021/08/08 12:11:16;;;;;;;20.90;16.10;;;;;;;;;;5076672;28;20073;-63
2021/08/08 12:13:42;;;;;;;18.77;15.65;;;;;;;;;;5076490;28;20387;-63
2021/08/08 12:16:12;;;;;;;21.02;15.77;;;;;;;;;;5093178;28;20031;-63
2021/08/08 12:18:37;;;;;;;20.20;15.60;;;;;;;;;;5094433;28;20479;-64
2021/08/08 12:21:13;;;;;;;18.00;15.55;;;;;;;;;;5094284;28;20035;-63
2021/08/08 12:23:40;;;;;;;20.73;16.23;;;;;;;;;;5074183;28;20020;-63
2021/08/08 12:26:06;;;;;;;21.67;15.95;;;;;;;;;;5075801;28;20436;-63
2021/08/08 12:28:32;;;;;;;26.80;16.20;;;;;;;;;;5094292;28;20028;-63
2021/08/08 12:31:05;;;;;;;22.92;16.20;;;;;;;;;;5094340;28;20027;-63
2021/08/08 12:33:31;;;;;;;19.50;15.43;;;;;;;;;;5076060;28;20067;-63
2021/08/08 12:36:08;;;;;;;19.42;15.05;;;;;;;;;;5075366;28;20464;-63
2021/08/08 12:38:34;;;;;;;19.00;15.32;;;;;;;;;;5075813;28;20020;-63
2021/08/08 12:41:00;;;;;;;23.38;15.60;;;;;;;;;;5075870;28;20085;-64
2021/08/08 12:43:27;;;;;;;19.98;15.00;;;;;;;;;;5093780;28;20020;-65
2021/08/08 12:45:54;;;;;;;21.88;15.25;;;;;;;;;;5070795;28;20067;-65
2021/08/08 12:48:30;;;;;;;19.67;14.40;;;;;;;;;;5055623;28;20025;-64
2021/08/08 12:50:56;;;;;;;21.25;15.15;;;;;;;;;;5055578;28;20035;-63
2021/08/08 12:53:22;;;;;;;18.60;14.80;;;;;;;;;;5055601;28;20124;-64
2021/08/08 12:55:50;;;;;;;19.75;15.32;;;;;;;;;;5054885;28;20066;-64
2021/08/08 12:58:16;;;;;;;22.55;15.45;;;;;;;;;;5073375;28;20054;-64
2021/08/08 13:00:43;;;;;;;21.67;14.95;;;;;;;;;;5073560;28;20021;-64
2021/08/08 13:03:09;;;;;;;20.67;15.30;;;;;;;;;;5055284;28;20119;-63
2021/08/08 13:05:35;;;;;;;20.10;15.88;;;;;;;;;;5073169;28;20100;-63
2021/08/08 13:08:00;;;;;;;18.17;14.55;;;;;;;;;;5074099;28;20067;-63
2021/08/08 13:10:26;;;;;;;20.05;14.93;;;;;;;;;;5073522;28;20050;-63
2021/08/08 13:12:52;;;;;;;18.67;15.30;;;;;;;;;;5073663;28;20051;-63
2021/08/08 13:15:19;;;;;;;20.25;15.73;;;;;;;;;;5073007;28;20021;-64
2021/08/08 13:17:45;;;;;;;20.80;15.20;;;;;;;;;;5073475;28;20058;-64
2021/08/08 13:20:12;;;;;;;19.02;14.52;;;;;;;;;;5055608;28;20020;-64
2021/08/08 13:22:39;;;;;;;20.45;15.32;;;;;;;;;;5072402;28;20035;-64
2021/08/08 13:25:08;;;;;;;20.27;15.63;;;;;;;;;;5073228;28;20024;-63
2021/08/08 13:27:34;;;;;;;19.33;15.18;;;;;;;;;;5055272;28;20048;-64
2021/08/08 13:30:00;;;;;;;19.63;15.45;;;;;;;;;;5073324;28;20035;-63
2021/08/08 13:32:26;;;;;;;20.02;17.02;;;;;;;;;;5073125;28;20020;-64
2021/08/08 13:34:52;;;;;;;20.30;15.75;;;;;;;;;;5073086;28;20020;-64
2021/08/08 13:37:18;;;;;;;20.70;16.33;;;;;;;;;;5054474;28;20135;-63
2021/08/08 13:39:44;;;;;;;19.55;15.68;;;;;;;;;;5054981;28;20029;-64
2021/08/08 13:42:10;;;;;;;20.40;15.63;;;;;;;;;;5054692;28;20100;-63
2021/08/08 13:44:36;;;;;;;19.52;16.20;;;;;;;;;;5054946;28;20021;-64
2021/08/08 13:47:02;;;;;;;18.20;14.95;;;;;;;;;;5072054;28;20025;-65
2021/08/08 13:49:28;;;;;;;20.77;15.82;;;;;;;;;;5072823;28;20020;-64
2021/08/08 13:51:55;;;;;;;18.13;15.52;;;;;;;;;;5073044;28;20044;-64
2021/08/08 13:54:22;;;;;;;21.15;15.90;;;;;;;;;;5054571;28;20511;-64
2021/08/08 13:56:48;;;;;;;20.83;15.63;;;;;;;;;;5053985;28;20078;-64
2021/08/08 13:59:15;;;;;;;20.55;16.08;;;;;;;;;;5072426;28;20404;-64
2021/08/08 14:01:41;;;;;;;20.90;15.98;;;;;;;;;;5071518;28;20021;-64
2021/08/08 14:04:07;;;;;;;20.90;16.00;;;;;;;;;;5072491;28;20017;-64
2021/08/08 14:06:33;;;;;;;18.67;15.15;;;;;;;;;;5071893;28;20027;-65
2021/08/08 14:08:59;;;;;;;19.33;16.05;;;;;;;;;;5072463;28;20063;-65
2021/08/08 14:11:25;;;;;;;18.52;15.40;;;;;;;;;;5072353;28;20032;-64
2021/08/08 14:13:51;;;;;;;19.70;15.48;;;;;;;;;;5072192;28;20028;-65
2021/08/08 14:16:17;;;;;;;19.73;15.50;;;;;;;;;;5071661;28;20054;-65